Time;durP1;ratioP1;P1;durP2;ratioP2;P2;SDS_P1;SDS_P2;PMS_P1;PMS_P2;Temp;Humidity;BMP_temperature;BMP_pressure;BME280_temperature;BME280_humidity;BME280_pressure;Samples;Min_cycle;Max_cycle;Signal;HPM_P1;HPM_P2
2021/06/22 00:02:22;;;;;;;4.30;4.00;;;18.10;99.90;;;;;;5052474;28;20477;-82
2021/06/22 00:04:49;;;;;;;7.20;5.13;;;18.10;99.90;;;;;;5052776;28;20489;-82
2021/06/22 00:07:20;;;;;;;4.80;4.50;;;18.10;99.90;;;;;;5052865;28;20820;-82
2021/06/22 00:09:46;;;;;;;5.97;4.80;;;18.10;99.90;;;;;;5052859;28;20473;-82
2021/06/22 00:12:13;;;;;;;6.27;5.40;;;18.10;99.90;;;;;;5052726;28;20448;-82
2021/06/22 00:14:40;;;;;;;5.17;4.73;;;18.10;99.90;;;;;;5053332;28;20442;-82
2021/06/22 00:17:07;;;;;;;5.20;4.70;;;18.10;99.90;;;;;;5052760;28;20452;-82
2021/06/22 00:19:33;;;;;;;8.90;5.07;;;18.10;99.90;;;;;;5052453;28;20529;-82
2021/06/22 00:22:00;;;;;;;5.37;4.97;;;18.10;99.90;;;;;;5052608;28;20452;-83
2021/06/22 00:24:28;;;;;;;5.83;5.30;;;18.10;99.90;;;;;;5052597;28;20477;-83
2021/06/22 00:26:55;;;;;;;7.43;5.43;;;18.10;99.90;;;;;;5053628;28;20449;-82
2021/06/22 00:29:23;;;;;;;5.90;5.50;;;18.10;99.90;;;;;;5056338;28;20445;-82
2021/06/22 00:31:50;;;;;;;6.00;5.50;;;18.00;99.90;;;;;;5056282;28;20453;-83
2021/06/22 00:34:17;;;;;;;5.50;4.90;;;18.00;99.90;;;;;;5056141;28;20478;-82
2021/06/22 00:36:44;;;;;;;5.37;4.97;;;18.00;99.90;;;;;;5056150;28;20450;-82
2021/06/22 00:39:11;;;;;;;6.33;5.77;;;17.90;99.90;;;;;;5055862;28;20978;-82
2021/06/22 00:41:39;;;;;;;6.57;4.90;;;17.90;99.90;;;;;;5056066;28;20449;-82
2021/06/22 00:44:06;;;;;;;5.73;4.70;;;17.90;99.90;;;;;;5055711;28;20470;-82
2021/06/22 00:46:34;;;;;;;7.10;5.50;;;17.90;99.90;;;;;;5055656;28;20477;-82
2021/06/22 00:49:01;;;;;;;5.90;5.30;;;17.90;99.90;;;;;;5055643;28;20445;-82
2021/06/22 00:51:27;;;;;;;5.87;5.20;;;17.90;99.90;;;;;;5055804;28;20453;-82
2021/06/22 00:53:55;;;;;;;5.77;5.27;;;17.80;99.90;;;;;;5055310;28;20492;-82
2021/06/22 00:56:22;;;;;;;6.77;5.60;;;17.80;99.90;;;;;;5055681;28;20888;-82
2021/06/22 00:58:51;;;;;;;7.13;5.27;;;17.90;99.90;;;;;;5055774;28;20465;-82
2021/06/22 01:01:17;;;;;;;5.97;5.47;;;17.90;99.90;;;;;;5055768;28;20452;-82
2021/06/22 01:03:44;;;;;;;5.70;5.20;;;17.90;99.90;;;;;;5055673;28;20466;-82
2021/06/22 01:06:12;;;;;;;5.43;4.93;;;18.00;99.90;;;;;;5055564;28;20493;-83
2021/06/22 01:08:39;;;;;;;5.60;4.80;;;17.90;99.90;;;;;;5055382;28;20441;-82
2021/06/22 01:11:06;;;;;;;8.10;5.20;;;17.90;99.90;;;;;;5055462;28;20884;-82
2021/06/22 01:13:33;;;;;;;4.43;4.13;;;17.90;99.90;;;;;;5055219;28;20973;-82
2021/06/22 01:16:01;;;;;;;5.00;4.50;;;17.90;99.90;;;;;;5055472;28;20450;-82
2021/06/22 01:18:28;;;;;;;6.53;4.30;;;17.90;99.90;;;;;;5055402;28;20441;-82
2021/06/22 01:20:57;;;;;;;4.43;4.13;;;17.90;99.90;;;;;;5055384;28;20454;-82
2021/06/22 01:23:24;;;;;;;4.20;3.90;;;17.90;99.90;;;;;;5055253;28;20560;-82
2021/06/22 01:25:50;;;;;;;6.70;4.00;;;17.80;99.90;;;;;;5054943;28;20478;-83
2021/06/22 01:28:17;;;;;;;3.80;3.50;;;17.80;99.90;;;;;;5055257;28;20465;-82
2021/06/22 01:30:44;;;;;;;4.03;3.73;;;17.80;99.90;;;;;;5054885;28;20449;-82
2021/06/22 01:33:11;;;;;;;3.63;3.33;;;17.70;99.90;;;;;;5054781;28;20470;-82
2021/06/22 01:35:37;;;;;;;4.03;3.73;;;17.70;99.90;;;;;;5055082;28;20452;-82
2021/06/22 01:38:09;;;;;;;4.40;4.00;;;17.70;99.90;;;;;;5054483;28;20446;-82
2021/06/22 01:40:43;;;;;;;6.20;3.90;;;17.70;99.90;;;;;;5054963;28;20512;-82
2021/06/22 01:43:10;;;;;;;4.10;3.70;;;17.70;99.90;;;;;;5054922;28;20515;-82
2021/06/22 01:45:37;;;;;;;3.87;3.57;;;17.70;99.90;;;;;;5054837;28;20489;-82
2021/06/22 01:48:04;;;;;;;3.57;3.37;;;17.70;99.90;;;;;;5054575;28;20434;-82
2021/06/22 01:50:31;;;;;;;3.40;3.13;;;17.70;99.90;;;;;;5054570;28;20933;-82
2021/06/22 01:52:57;;;;;;;3.63;3.27;;;17.60;99.90;;;;;;5054207;28;20995;-82
2021/06/22 01:55:36;;;;;;;4.97;4.57;;;17.60;99.90;;;;;;5054721;28;20450;-82
2021/06/22 01:58:05;;;;;;;4.80;3.40;;;17.60;99.90;;;;;;5054718;28;20460;-82
2021/06/22 02:00:32;;;;;;;3.67;3.27;;;17.60;99.90;;;;;;5054290;28;20454;-82
2021/06/22 02:02:59;;;;;;;4.20;3.83;;;17.60;99.90;;;;;;5054476;28;20476;-82
2021/06/22 02:05:26;;;;;;;4.80;4.40;;;17.60;99.90;;;;;;5054407;28;20493;-82
2021/06/22 02:07:52;;;;;;;5.07;4.57;;;17.60;99.90;;;;;;5054473;28;20450;-82
2021/06/22 02:10:19;;;;;;;6.87;4.77;;;17.60;99.90;;;;;;5054500;28;20430;-82
2021/06/22 02:12:48;;;;;;;5.20;4.70;;;17.60;99.90;;;;;;5054326;28;20465;-82
2021/06/22 02:15:16;;;;;;;5.47;4.93;;;17.60;99.90;;;;;;5053979;28;20446;-82
2021/06/22 02:17:43;;;;;;;5.60;4.17;;;17.60;99.90;;;;;;5054295;28;20804;-82
2021/06/22 02:20:11;;;;;;;4.40;4.10;;;17.60;99.90;;;;;;5054238;28;20458;-82
2021/06/22 02:22:38;;;;;;;4.60;4.30;;;17.60;99.90;;;;;;5053809;28;20981;-83
2021/06/22 02:25:07;;;;;;;7.43;5.30;;;17.50;99.90;;;;;;5054127;28;20474;-82
2021/06/22 02:27:35;;;;;;;4.60;4.20;;;17.60;99.90;;;;;;5053757;28;20828;-82
2021/06/22 02:30:04;;;;;;;4.33;3.60;;;17.60;99.90;;;;;;5054069;28;20464;-82
2021/06/22 02:32:30;;;;;;;5.40;3.63;;;17.60;99.90;;;;;;5053981;28;20823;-82
2021/06/22 02:34:57;;;;;;;3.63;3.33;;;17.60;99.90;;;;;;5053867;28;20505;-82
2021/06/22 02:37:24;;;;;;;3.37;3.17;;;17.60;99.90;;;;;;5053968;28;20450;-82
2021/06/22 02:39:50;;;;;;;4.07;3.13;;;17.60;99.90;;;;;;5053904;28;20441;-82
2021/06/22 02:42:17;;;;;;;4.50;3.40;;;17.60;99.90;;;;;;5053455;28;20452;-82
2021/06/22 02:44:45;;;;;;;3.13;2.93;;;17.60;99.90;;;;;;5053476;28;20449;-82
2021/06/22 02:47:13;;;;;;;3.50;3.20;;;17.60;99.90;;;;;;5053732;28;20488;-82
2021/06/22 02:49:39;;;;;;;3.20;2.97;;;17.50;99.90;;;;;;5053612;28;20449;-82
2021/06/22 02:52:07;;;;;;;3.87;3.57;;;17.50;99.90;;;;;;5053434;28;20465;-81
2021/06/22 02:54:37;;;;;;;3.30;3.10;;;17.50;99.90;;;;;;5053676;28;20434;-82
2021/06/22 02:57:06;;;;;;;3.57;3.27;;;17.50;99.90;;;;;;5056588;28;20492;-82
2021/06/22 02:59:33;;;;;;;4.57;3.33;;;17.50;99.90;;;;;;5053601;28;20500;-82
2021/06/22 03:02:00;;;;;;;3.67;3.37;;;17.50;99.90;;;;;;5053531;28;20457;-82
2021/06/22 03:04:28;;;;;;;4.30;4.00;;;17.50;99.90;;;;;;5053528;28;20493;-82
2021/06/22 03:06:55;;;;;;;4.57;4.20;;;17.50;99.90;;;;;;5053089;28;21031;-82
2021/06/22 03:09:22;;;;;;;4.27;3.50;;;17.50;99.90;;;;;;5053479;28;20429;-82
2021/06/22 03:11:49;;;;;;;3.83;3.43;;;17.50;99.90;;;;;;5053431;28;20461;-77
2021/06/22 03:14:17;;;;;;;4.80;3.70;;;17.40;99.90;;;;;;5053043;28;20497;-78
2021/06/22 03:16:44;;;;;;;4.23;3.93;;;17.50;99.90;;;;;;5053000;28;20941;-79
2021/06/22 03:19:11;;;;;;;4.53;4.13;;;17.50;99.90;;;;;;5053344;28;20453;-79
2021/06/22 03:21:42;;;;;;;4.47;3.90;;;17.50;99.90;;;;;;5053256;28;20454;-79
2021/06/22 03:24:09;;;;;;;4.90;4.50;;;17.50;99.90;;;;;;5053240;28;20571;-79
2021/06/22 03:26:36;;;;;;;4.27;3.80;;;17.50;99.90;;;;;;5053044;28;20480;-79
2021/06/22 03:29:03;;;;;;;4.30;4.00;;;17.50;99.90;;;;;;5053166;28;20457;-79
2021/06/22 03:31:30;;;;;;;4.77;4.47;;;17.50;99.90;;;;;;5054030;28;20446;-79
2021/06/22 03:33:57;;;;;;;7.53;3.70;;;17.50;99.90;;;;;;5052790;28;20465;-79
2021/06/22 03:36:23;;;;;;;5.20;4.70;;;17.50;99.90;;;;;;5053117;28;20450;-79
2021/06/22 03:38:52;;;;;;;4.80;4.40;;;17.50;99.90;;;;;;5053133;28;20461;-79
2021/06/22 03:41:19;;;;;;;4.13;3.73;;;17.50;99.90;;;;;;5053070;28;20461;-79
2021/06/22 03:43:45;;;;;;;5.97;5.20;;;17.50;99.90;;;;;;5053001;28;20489;-79
2021/06/22 03:46:16;;;;;;;4.93;4.53;;;17.50;99.90;;;;;;5052957;28;20485;-79
2021/06/22 03:48:43;;;;;;;9.37;5.03;;;17.50;99.90;;;;;;5053077;28;20466;-79
2021/06/22 03:51:10;;;;;;;7.07;6.00;;;17.50;99.90;;;;;;5052994;28;20446;-79
2021/06/22 03:53:37;;;;;;;6.23;5.73;;;17.50;99.90;;;;;;5052495;28;20857;-79
2021/06/22 03:56:06;;;;;;;8.93;6.03;;;17.50;99.90;;;;;;5052852;28;20441;-79
2021/06/22 03:58:33;;;;;;;5.20;4.80;;;17.50;99.90;;;;;;5052896;28;20453;-79
2021/06/22 04:01:00;;;;;;;5.47;4.97;;;17.50;99.90;;;;;;5052643;28;20955;-80
2021/06/22 04:03:27;;;;;;;6.53;5.93;;;17.50;99.90;;;;;;5056361;28;20512;-80
2021/06/22 04:05:54;;;;;;;6.20;5.60;;;17.40;99.90;;;;;;5056773;28;20478;-81
2021/06/22 04:08:21;;;;;;;5.63;5.20;;;17.40;99.90;;;;;;5056440;28;20964;-81
2021/06/22 04:10:47;;;;;;;6.70;5.90;;;17.40;99.90;;;;;;5056448;28;20441;-81
2021/06/22 04:13:16;;;;;;;5.87;5.37;;;17.30;99.90;;;;;;5056298;28;20984;-81
2021/06/22 04:15:42;;;;;;;6.10;5.60;;;17.30;99.90;;;;;;5056245;28;20957;-81
2021/06/22 04:18:11;;;;;;;7.77;6.10;;;17.30;99.90;;;;;;5056323;28;20440;-82
2021/06/22 04:20:39;;;;;;;6.70;6.00;;;17.20;99.90;;;;;;5056250;28;20810;-82
2021/06/22 04:23:06;;;;;;;6.70;6.00;;;17.20;99.90;;;;;;5056415;28;20474;-82
2021/06/22 04:25:33;;;;;;;6.93;6.30;;;17.20;99.90;;;;;;5056222;28;20466;-82
2021/06/22 04:28:01;;;;;;;6.93;6.23;;;17.10;99.90;;;;;;5056118;28;20921;-82
2021/06/22 04:30:29;;;;;;;8.30;6.67;;;17.10;99.90;;;;;;5056009;28;21011;-81
2021/06/22 04:32:56;;;;;;;7.00;6.40;;;17.10;99.90;;;;;;5056770;28;20839;-81
2021/06/22 04:35:23;;;;;;;6.33;5.67;;;17.20;99.90;;;;;;5056234;28;20442;-81
2021/06/22 04:37:50;;;;;;;6.33;5.83;;;17.20;99.90;;;;;;5055914;28;20945;-81
2021/06/22 04:40:17;;;;;;;17.70;8.13;;;17.20;99.90;;;;;;5056021;28;20520;-81
2021/06/22 04:42:44;;;;;;;7.60;6.83;;;17.20;99.90;;;;;;5056028;28;20465;-81
2021/06/22 04:45:12;;;;;;;11.50;7.30;;;17.20;99.90;;;;;;5055796;28;20434;-81
2021/06/22 04:47:40;;;;;;;9.70;8.17;;;17.20;99.90;;;;;;5055750;28;20953;-81
2021/06/22 04:50:08;;;;;;;10.90;8.00;;;17.10;99.90;;;;;;5055954;28;20441;-81
2021/06/22 04:52:35;;;;;;;9.40;7.33;;;17.20;99.90;;;;;;5055583;28;20481;-82
2021/06/22 04:55:02;;;;;;;13.63;7.40;;;17.20;99.90;;;;;;5055898;28;20450;-81
2021/06/22 04:57:29;;;;;;;10.90;8.03;;;17.20;99.90;;;;;;5055825;28;20446;-81
2021/06/22 04:59:56;;;;;;;8.53;7.70;;;17.20;99.90;;;;;;5055786;28;20445;-81
2021/06/22 05:02:23;;;;;;;13.40;8.03;;;17.20;99.90;;;;;;5055380;28;20453;-81
2021/06/22 05:04:52;;;;;;;8.77;7.87;;;17.20;99.90;;;;;;5055615;28;20457;-81
2021/06/22 05:07:18;;;;;;;9.43;7.67;;;17.20;99.90;;;;;;5055230;28;20487;-81
2021/06/22 05:09:45;;;;;;;8.90;6.80;;;17.20;99.90;;;;;;5055603;28;20434;-80
2021/06/22 05:12:12;;;;;;;12.60;8.20;;;17.30;99.90;;;;;;5055312;28;20442;-80
2021/06/22 05:14:39;;;;;;;8.77;7.93;;;17.30;99.90;;;;;;5054260;28;20448;-81
2021/06/22 05:17:06;;;;;;;8.13;7.13;;;17.30;99.90;;;;;;5055201;28;20796;-82
2021/06/22 05:19:33;;;;;;;8.90;7.80;;;17.30;99.90;;;;;;5055494;28;20823;-81
2021/06/22 05:22:01;;;;;;;8.03;7.27;;;17.30;99.90;;;;;;5055113;28;20437;-80
2021/06/22 05:24:27;;;;;;;8.77;7.93;;;17.40;99.90;;;;;;5055044;28;20454;-80
2021/06/22 05:26:54;;;;;;;7.97;7.13;;;17.40;99.90;;;;;;5054904;28;20473;-80
2021/06/22 05:29:21;;;;;;;8.00;7.20;;;17.50;99.90;;;;;;5055235;28;20457;-80
2021/06/22 05:31:48;;;;;;;7.17;6.57;;;17.50;99.90;;;;;;5055181;28;20568;-80
2021/06/22 05:34:15;;;;;;;8.50;7.60;;;17.50;99.90;;;;;;5054806;28;20454;-80
2021/06/22 05:36:42;;;;;;;7.63;6.93;;;17.60;99.90;;;;;;5055065;28;20441;-80
2021/06/22 05:39:10;;;;;;;8.23;7.50;;;17.60;99.90;;;;;;5055015;28;20453;-80
2021/06/22 05:41:37;;;;;;;7.80;7.00;;;17.70;99.90;;;;;;5054695;28;20793;-80
2021/06/22 05:44:04;;;;;;;7.60;6.23;;;17.70;99.90;;;;;;5054616;28;20454;-80
2021/06/22 05:46:31;;;;;;;7.50;6.80;;;17.80;99.90;;;;;;5054843;28;20615;-80
2021/06/22 05:48:58;;;;;;;8.20;6.30;;;17.80;99.90;;;;;;5054884;28;20438;-80
2021/06/22 05:51:25;;;;;;;6.80;6.20;;;17.90;99.90;;;;;;5054515;28;20448;-80
2021/06/22 05:53:52;;;;;;;6.83;6.23;;;17.90;99.90;;;;;;5054378;28;20473;-80
2021/06/22 05:56:20;;;;;;;6.17;5.67;;;17.90;99.90;;;;;;5054755;28;20449;-80
2021/06/22 05:58:47;;;;;;;6.97;5.93;;;17.90;99.90;;;;;;5054726;28;20461;-80
2021/06/22 06:01:14;;;;;;;6.60;6.00;;;18.00;99.90;;;;;;5054732;28;20471;-80
2021/06/22 06:03:41;;;;;;;6.17;5.60;;;18.00;99.90;;;;;;5054388;28;20466;-80
2021/06/22 06:06:07;;;;;;;7.17;6.23;;;18.00;99.90;;;;;;5054748;28;20450;-80
2021/06/22 06:08:34;;;;;;;6.30;5.70;;;18.10;99.90;;;;;;5054664;28;20460;-84
2021/06/22 06:11:02;;;;;;;6.10;5.47;;;18.10;99.90;;;;;;5054920;28;20445;-84
2021/06/22 06:13:34;;;;;;;9.70;5.70;;;18.20;99.90;;;;;;5054754;28;20469;-85
2021/06/22 06:16:00;;;;;;;4.90;4.60;;;18.20;99.90;;;;;;5054185;28;20964;-84
2021/06/22 06:18:28;;;;;;;5.93;4.93;;;18.30;99.90;;;;;;5054714;28;20460;-84
2021/06/22 06:20:56;;;;;;;4.63;4.00;;;18.40;99.90;;;;;;5054509;28;20817;-84
2021/06/22 06:23:26;;;;;;;4.97;4.47;;;18.50;99.90;;;;;;5054393;28;20859;-85
2021/06/22 06:25:53;;;;;;;5.87;4.80;;;18.50;99.90;;;;;;5054055;28;20484;-85
2021/06/22 06:28:22;;;;;;;7.70;4.00;;;18.60;99.90;;;;;;5054127;28;20483;-83
2021/06/22 06:30:50;;;;;;;4.40;4.10;;;18.60;99.90;;;;;;5055145;28;20442;-84
2021/06/22 06:33:17;;;;;;;4.50;4.20;;;18.60;99.90;;;;;;5054531;28;20464;-84
2021/06/22 06:35:44;;;;;;;5.13;4.73;;;18.70;99.90;;;;;;5054398;28;20445;-84
2021/06/22 06:38:10;;;;;;;4.20;3.90;;;18.70;99.90;;;;;;5054171;28;20456;-84
2021/06/22 06:40:37;;;;;;;5.70;3.80;;;18.90;99.90;;;;;;5054338;28;20453;-84
2021/06/22 06:43:04;;;;;;;4.33;3.90;;;19.20;99.90;;;;;;5054294;28;20505;-85
2021/06/22 06:45:31;;;;;;;6.73;4.07;;;19.60;99.90;;;;;;5054093;28;20433;-84
2021/06/22 06:47:59;;;;;;;4.43;3.20;;;20.00;99.90;;;;;;5054090;28;20488;-83
2021/06/22 06:50:26;;;;;;;3.63;3.23;;;20.20;99.90;;;;;;5054040;28;20453;-84
2021/06/22 06:52:53;;;;;;;3.73;3.40;;;20.40;99.90;;;;;;5053553;28;20515;-84
2021/06/22 06:55:26;;;;;;;3.07;2.87;;;20.40;99.90;;;;;;5053931;28;20441;-84
2021/06/22 06:57:54;;;;;;;2.80;2.57;;;20.60;99.90;;;;;;5053977;28;20430;-84
2021/06/22 07:00:22;;;;;;;2.00;1.70;;;20.60;99.90;;;;;;5053985;28;20465;-84
2021/06/22 07:02:49;;;;;;;2.00;1.90;;;20.70;99.90;;;;;;5053768;28;20461;-84
2021/06/22 07:05:17;;;;;;;2.50;1.50;;;20.90;99.90;;;;;;5053688;28;20809;-84
2021/06/22 07:07:44;;;;;;;1.73;1.50;;;21.10;99.90;;;;;;5053747;28;20488;-84
2021/06/22 07:10:12;;;;;;;1.80;1.70;;;21.20;99.90;;;;;;5053642;28;20441;-84
2021/06/22 07:12:39;;;;;;;2.10;2.00;;;21.20;99.90;;;;;;5053228;28;20477;-84
2021/06/22 07:15:07;;;;;;;1.67;1.57;;;21.00;99.90;;;;;;5053662;28;20544;-85
2021/06/22 07:17:34;;;;;;;1.80;1.70;;;20.90;99.90;;;;;;5053696;28;20439;-84
2021/06/22 07:20:01;;;;;;;2.50;1.40;;;20.80;99.90;;;;;;5053407;28;20460;-84
2021/06/22 07:22:29;;;;;;;2.87;2.17;;;20.70;99.90;;;;;;5053469;28;20479;-84
2021/06/22 07:24:56;;;;;;;1.90;1.80;;;20.60;99.90;;;;;;5053576;28;20455;-83
2021/06/22 07:27:23;;;;;;;4.60;2.37;;;20.40;99.90;;;;;;5053308;28;20508;-83
2021/06/22 07:29:50;;;;;;;2.50;2.40;;;20.40;99.90;;;;;;5053334;28;20480;-83
2021/06/22 07:32:16;;;;;;;2.73;2.57;;;20.40;99.90;;;;;;5053253;28;20433;-84
2021/06/22 07:34:43;;;;;;;3.17;2.97;;;20.40;99.90;;;;;;5053473;28;20452;-83
2021/06/22 07:37:10;;;;;;;2.97;2.60;;;20.40;99.90;;;;;;5055087;28;20430;-83
2021/06/22 07:39:38;;;;;;;2.53;2.43;;;20.30;99.90;;;;;;5058428;28;20907;-83
2021/06/22 07:42:05;;;;;;;4.90;4.20;;;20.40;99.90;;;;;;5057363;28;20424;-83
2021/06/22 07:47:07;;;;;;;3.43;3.13;;;20.40;99.90;;;;;;6109404;22;20387;-83
2021/06/22 07:49:34;;;;;;;3.33;3.03;;;20.40;99.90;;;;;;5057068;28;20949;-83
2021/06/22 07:52:01;;;;;;;2.80;2.60;;;20.90;99.90;;;;;;5057104;28;20445;-83
2021/06/22 07:54:27;;;;;;;4.00;3.30;;;21.60;99.90;;;;;;5056784;28;20434;-83
2021/06/22 07:56:55;;;;;;;7.70;3.20;;;21.90;99.90;;;;;;5056679;28;20464;-83
2021/06/22 07:59:22;;;;;;;2.70;2.50;;;22.10;99.90;;;;;;5057054;28;20444;-83
2021/06/22 08:01:49;;;;;;;4.30;3.30;;;22.30;99.90;;;;;;5056652;28;20448;-83
2021/06/22 08:04:17;;;;;;;2.90;2.70;;;22.30;99.90;;;;;;5056736;28;20460;-83
2021/06/22 08:06:44;;;;;;;6.03;3.27;;;22.30;99.90;;;;;;5056726;28;20468;-83
2021/06/22 08:09:11;;;;;;;2.53;2.40;;;22.20;99.90;;;;;;5056800;28;20437;-83
2021/06/22 08:11:37;;;;;;;3.27;3.07;;;22.00;99.90;;;;;;5056685;28;20567;-83
2021/06/22 08:14:05;;;;;;;2.90;2.57;;;21.80;99.90;;;;;;5056433;28;20445;-83
2021/06/22 08:16:32;;;;;;;2.53;2.43;;;21.50;99.90;;;;;;5056631;28;20472;-84
2021/06/22 08:18:59;;;;;;;2.50;2.30;;;21.30;99.90;;;;;;5056410;28;20436;-83
2021/06/22 08:21:26;;;;;;;4.13;2.77;;;21.00;99.90;;;;;;5056399;28;20945;-84
2021/06/22 08:23:52;;;;;;;3.43;3.10;;;20.80;99.90;;;;;;5056251;28;20441;-84
2021/06/22 08:26:19;;;;;;;2.90;2.70;;;20.70;99.90;;;;;;5056414;28;20465;-84
2021/06/22 08:28:46;;;;;;;3.07;2.80;;;20.60;99.90;;;;;;5056361;28;21020;-84
2021/06/22 08:31:14;;;;;;;4.27;2.97;;;20.60;99.90;;;;;;5056370;28;20452;-84
2021/06/22 08:33:41;;;;;;;3.10;2.90;;;20.50;99.90;;;;;;5056351;28;20449;-84
2021/06/22 08:36:08;;;;;;;2.70;2.53;;;20.30;99.90;;;;;;5056153;28;20477;-84
2021/06/22 08:38:35;;;;;;;2.77;2.57;;;20.20;99.90;;;;;;5056359;28;20433;-84
2021/06/22 08:41:01;;;;;;;3.10;2.80;;;20.20;99.90;;;;;;5055993;28;20434;-84
2021/06/22 08:43:28;;;;;;;2.90;2.70;;;20.10;99.90;;;;;;5055919;28;20430;-84
2021/06/22 08:45:55;;;;;;;2.70;2.40;;;20.10;99.90;;;;;;5056465;28;20458;-84
2021/06/22 08:48:24;;;;;;;3.70;3.30;;;20.10;99.90;;;;;;5055436;28;20489;-84
2021/06/22 08:50:52;;;;;;;2.47;2.27;;;20.10;99.90;;;;;;5055937;28;20457;-84
2021/06/22 08:53:18;;;;;;;2.93;2.70;;;20.20;99.90;;;;;;5055861;28;20410;-85
2021/06/22 08:55:46;;;;;;;3.20;2.90;;;20.30;99.90;;;;;;5056047;28;20465;-84
2021/06/22 08:58:15;;;;;;;3.33;3.10;;;20.40;99.90;;;;;;5055999;28;20473;-84
2021/06/22 09:00:44;;;;;;;2.97;2.57;;;20.40;99.90;;;;;;5056023;28;20441;-84
2021/06/22 09:03:14;;;;;;;3.43;3.13;;;20.50;99.90;;;;;;5055849;28;20418;-90
2021/06/22 09:05:43;;;;;;;5.00;2.40;;;20.60;99.90;;;;;;5056715;28;20505;-90
2021/06/22 09:08:20;;;;;;;3.63;3.33;;;20.60;99.90;;;;;;5056541;28;20481;-90
2021/06/22 09:10:48;;;;;;;3.70;2.93;;;20.60;99.90;;;;;;5056645;28;20421;-90
2021/06/22 09:13:18;;;;;;;3.83;3.33;;;20.70;99.90;;;;;;5056567;28;20805;-90
2021/06/22 09:15:45;;;;;;;2.77;2.40;;;20.70;99.90;;;;;;5057292;28;20434;-88
2021/06/22 09:18:27;;;;;;;2.50;2.40;;;20.70;99.90;;;;;;5056262;28;20469;-86
2021/06/22 09:20:57;;;;;;;2.47;2.37;;;20.60;99.90;;;;;;5056186;28;20440;-89
2021/06/22 09:23:25;;;;;;;2.50;2.40;;;20.60;99.90;;;;;;5056346;28;20430;-89
2021/06/22 09:25:55;;;;;;;3.10;2.33;;;20.60;99.90;;;;;;5056310;28;20433;-89
2021/06/22 09:28:28;;;;;;;3.13;2.67;;;20.70;99.90;;;;;;5056012;28;20555;-89
2021/06/22 09:30:58;;;;;;;2.83;2.63;;;20.80;99.90;;;;;;5056159;28;20437;-89
2021/06/22 09:33:28;;;;;;;2.97;2.80;;;20.80;99.90;;;;;;5056160;28;20441;-89
2021/06/22 09:36:14;;;;;;;2.90;2.70;;;20.80;99.90;;;;;;5055998;28;20774;-88
2021/06/22 09:38:43;;;;;;;2.53;2.43;;;20.80;99.90;;;;;;5055464;28;20430;-86
2021/06/22 09:41:15;;;;;;;3.50;3.20;;;20.70;99.90;;;;;;5055659;28;20421;-89
2021/06/22 09:43:44;;;;;;;4.80;2.97;;;20.60;99.90;;;;;;5056151;28;20429;-89
2021/06/22 09:46:13;;;;;;;3.43;3.23;;;20.40;99.90;;;;;;5055803;28;20434;-88
2021/06/22 09:49:01;;;;;;;4.00;3.70;;;20.40;99.90;;;;;;5054883;28;20902;-86
2021/06/22 09:51:32;;;;;;;4.97;4.50;;;20.30;99.90;;;;;;5055191;28;20430;-86
2021/06/22 09:54:16;;;;;;;4.83;4.33;;;20.10;99.90;;;;;;5055531;28;20484;-83
2021/06/22 09:57:00;;;;;;;6.53;5.57;;;19.90;99.90;;;;;;5054786;28;20460;-85
2021/06/22 09:59:28;;;;;;;7.93;6.53;;;19.70;99.90;;;;;;5054211;28;20801;-86
2021/06/22 10:02:03;;;;;;;7.17;6.47;;;19.50;99.90;;;;;;5054918;28;20428;-86
2021/06/22 10:04:29;;;;;;;10.47;6.30;;;19.40;99.90;;;;;;5054923;28;20409;-87
2021/06/22 10:06:59;;;;;;;9.00;7.27;;;19.40;99.90;;;;;;5054518;28;20984;-87
2021/06/22 10:09:29;;;;;;;7.40;6.80;;;19.30;99.90;;;;;;5054576;28;20474;-82
2021/06/22 10:11:57;;;;;;;8.30;7.50;;;19.20;99.90;;;;;;5054556;28;20811;-82
2021/06/22 10:14:27;;;;;;;8.97;8.10;;;19.20;99.90;;;;;;5054488;28;20437;-82
2021/06/22 10:16:56;;;;;;;8.70;7.70;;;19.20;99.90;;;;;;5054111;28;20453;-83
2021/06/22 10:19:23;;;;;;;8.63;7.80;;;19.20;99.90;;;;;;5054171;28;20414;-84
2021/06/22 10:21:51;;;;;;;7.97;7.17;;;19.20;99.90;;;;;;5054089;28;20469;-83
2021/06/22 10:24:20;;;;;;;7.53;6.80;;;19.20;99.90;;;;;;5054336;28;20461;-82
2021/06/22 10:26:48;;;;;;;9.50;7.03;;;19.00;99.90;;;;;;5053904;28;20450;-82
2021/06/22 10:29:18;;;;;;;7.80;7.00;;;19.00;99.90;;;;;;5054143;28;20466;-82
2021/06/22 10:31:45;;;;;;;9.20;8.30;;;19.00;99.90;;;;;;5054179;28;20462;-82
2021/06/22 10:34:12;;;;;;;8.37;7.57;;;18.90;99.90;;;;;;5054102;28;20441;-82
2021/06/22 10:36:47;;;;;;;8.10;7.40;;;19.00;99.90;;;;;;5054009;28;20470;-82
2021/06/22 10:39:20;;;;;;;8.40;7.50;;;18.90;99.90;;;;;;5054036;28;20441;-83
2021/06/22 10:41:49;;;;;;;8.80;7.40;;;19.00;99.90;;;;;;5054038;28;20434;-82
2021/06/22 10:44:43;;;;;;;7.27;6.60;;;19.10;99.90;;;;;;5053695;28;20410;-82
2021/06/22 10:47:28;;;;;;;7.23;6.63;;;19.10;99.90;;;;;;5053932;28;20478;-83
2021/06/22 10:50:14;;;;;;;8.33;6.60;;;19.00;99.90;;;;;;5053837;28;20434;-83
2021/06/22 10:53:01;;;;;;;8.67;7.87;;;19.00;99.90;;;;;;5054146;28;20449;-83
2021/06/22 10:56:04;;;;;;;9.67;7.83;;;19.00;99.90;;;;;;5053743;28;20438;-83
2021/06/22 10:58:32;;;;;;;8.10;6.60;;;18.90;99.90;;;;;;5049125;28;20955;-83
2021/06/22 11:01:18;;;;;;;7.70;6.83;;;18.90;99.90;;;;;;5053604;28;20426;-83
2021/06/22 11:03:45;;;;;;;8.77;7.87;;;18.90;99.90;;;;;;5053580;28;20840;-83
2021/06/22 11:06:32;;;;;;;8.90;7.10;;;18.90;99.90;;;;;;5053516;28;20469;-83
2021/06/22 11:09:20;;;;;;;9.67;7.60;;;18.90;99.90;;;;;;5053453;28;20556;-82
2021/06/22 11:11:48;;;;;;;10.77;7.60;;;18.90;99.90;;;;;;5053469;28;20492;-83
2021/06/22 11:14:17;;;;;;;6.97;6.37;;;18.90;99.90;;;;;;5054109;28;20454;-82
2021/06/22 11:16:44;;;;;;;9.73;7.13;;;18.80;99.90;;;;;;5053363;28;20515;-82
2021/06/22 11:19:15;;;;;;;7.73;7.00;;;18.80;99.90;;;;;;5053092;28;20520;-82
2021/06/22 11:21:54;;;;;;;9.80;7.37;;;18.80;99.90;;;;;;5053328;28;20430;-82
2021/06/22 11:24:23;;;;;;;7.63;6.83;;;18.80;99.90;;;;;;5053030;28;20975;-82
2021/06/22 11:27:01;;;;;;;6.27;5.63;;;18.70;99.90;;;;;;5054226;28;20468;-90
2021/06/22 11:29:56;;;;;;;7.13;6.43;;;18.70;99.90;;;;;;5054248;28;20466;-90
2021/06/22 11:32:44;;;;;;;7.10;6.40;;;18.80;99.90;;;;;;5054391;28;20923;-90
2021/06/22 11:35:13;;;;;;;7.60;6.60;;;18.80;99.90;;;;;;5054102;28;20434;-90
2021/06/22 11:37:41;;;;;;;7.57;6.80;;;18.80;99.90;;;;;;5053964;28;20462;-90
2021/06/22 11:40:14;;;;;;;6.50;5.50;;;18.80;99.90;;;;;;5054006;28;20406;-90
2021/06/22 11:42:43;;;;;;;8.50;5.50;;;18.80;99.90;;;;;;5054279;28;20434;-90
2021/06/22 11:45:25;;;;;;;6.93;4.70;;;18.80;99.90;;;;;;5053928;28;20842;-90
2021/06/22 11:47:59;;;;;;;6.30;5.30;;;18.80;99.90;;;;;;5053477;28;20923;-90
2021/06/22 11:50:29;;;;;;;8.90;5.63;;;18.70;99.90;;;;;;5053959;28;20437;-90
2021/06/22 11:53:15;;;;;;;6.70;6.10;;;18.80;99.90;;;;;;5054175;28;20449;-90
2021/06/22 11:55:51;;;;;;;6.50;5.37;;;18.80;99.90;;;;;;5053825;28;20797;-90
2021/06/22 11:58:35;;;;;;;5.97;5.37;;;18.70;99.90;;;;;;5053948;28;20426;-90
2021/06/22 12:01:05;;;;;;;5.83;5.23;;;18.70;99.90;;;;;;5053807;28;20430;-90
2021/06/22 12:03:33;;;;;;;6.07;5.47;;;18.70;99.90;;;;;;5053716;28;20434;-90
2021/06/22 12:06:08;;;;;;;5.37;4.87;;;18.70;99.90;;;;;;5053825;28;20915;-89
2021/06/22 12:08:37;;;;;;;5.00;4.60;;;18.70;99.90;;;;;;5053698;28;20469;-90
2021/06/22 12:11:03;;;;;;;5.80;4.80;;;18.60;99.90;;;;;;5053743;28;20434;-87
2021/06/22 12:13:37;;;;;;;4.50;4.20;;;18.60;99.90;;;;;;5054164;28;20442;-90
2021/06/22 12:16:25;;;;;;;3.60;3.30;;;18.60;99.90;;;;;;5053951;28;20430;-90
2021/06/22 12:18:54;;;;;;;3.93;3.60;;;18.50;99.90;;;;;;5053731;28;20522;-91
2021/06/22 12:21:21;;;;;;;6.50;5.47;;;18.50;99.90;;;;;;5053671;28;20441;-89
2021/06/22 12:23:48;;;;;;;4.90;4.50;;;18.40;99.90;;;;;;5056829;28;20508;-91
2021/06/22 12:26:16;;;;;;;5.43;4.90;;;18.20;99.90;;;;;;5057358;28;20474;-91
2021/06/22 12:28:44;;;;;;;5.40;4.70;;;18.00;99.90;;;;;;5057376;28;20473;-92
2021/06/22 12:31:12;;;;;;;5.87;5.27;;;17.90;99.90;;;;;;5057590;28;20875;-88
2021/06/22 12:33:41;;;;;;;8.67;4.87;;;17.70;99.90;;;;;;5057353;28;20457;-86
2021/06/22 12:36:10;;;;;;;12.57;5.73;;;17.60;99.90;;;;;;5056411;28;20441;-86
2021/06/22 12:38:39;;;;;;;10.43;6.07;;;17.60;99.90;;;;;;5056520;28;20426;-86
2021/06/22 12:41:08;;;;;;;6.67;5.93;;;17.50;99.90;;;;;;5056272;28;20829;-87
2021/06/22 12:43:47;;;;;;;6.90;5.30;;;17.60;99.90;;;;;;5056161;28;20885;-87
2021/06/22 12:46:15;;;;;;;6.67;6.07;;;17.60;99.90;;;;;;5057149;28;20861;-88
2021/06/22 12:48:43;;;;;;;9.70;6.93;;;17.80;99.90;;;;;;5056143;28;20498;-87
2021/06/22 12:51:13;;;;;;;10.37;6.87;;;17.90;99.90;;;;;;5057116;28;20458;-88
2021/06/22 12:53:40;;;;;;;7.23;6.17;;;18.10;99.90;;;;;;5055999;28;20963;-87
2021/06/22 12:56:09;;;;;;;8.77;6.10;;;18.30;99.90;;;;;;5056147;28;20449;-88
2021/06/22 12:58:53;;;;;;;6.30;5.60;;;18.40;99.90;;;;;;5056250;28;20968;-93